sensor_id;sensor_type;location;lat;lon;timestamp;P1;durP1;ratioP1;P2;durP2;ratioP2
65315;SDS011;51920;53.952;10.292;2023-06-14T00:01:15;6.43;;;3.90;;
65315;SDS011;51920;53.952;10.292;2023-06-14T00:03:43;7.40;;;3.70;;
65315;SDS011;51920;53.952;10.292;2023-06-14T00:06:10;7.53;;;3.55;;
65315;SDS011;51920;53.952;10.292;2023-06-14T00:08:37;7.47;;;4.00;;
65315;SDS011;51920;53.952;10.292;2023-06-14T00:11:04;7.45;;;4.05;;
65315;SDS011;51920;53.952;10.292;2023-06-14T00:13:31;10.50;;;4.07;;
65315;SDS011;51920;53.952;10.292;2023-06-14T00:15:58;6.87;;;3.97;;
65315;SDS011;51920;53.952;10.292;2023-06-14T00:18:25;5.80;;;3.70;;
65315;SDS011;51920;53.952;10.292;2023-06-14T00:20:55;8.15;;;3.88;;
65315;SDS011;51920;53.952;10.292;2023-06-14T00:23:22;8.82;;;4.15;;
65315;SDS011;51920;53.952;10.292;2023-06-14T00:25:49;5.32;;;3.78;;
65315;SDS011;51920;53.952;10.292;2023-06-14T00:28:16;8.00;;;4.07;;
65315;SDS011;51920;53.952;10.292;2023-06-14T00:30:43;8.50;;;3.90;;
65315;SDS011;51920;53.952;10.292;2023-06-14T00:33:13;6.82;;;4.43;;
65315;SDS011;51920;53.952;10.292;2023-06-14T00:35:42;9.25;;;4.28;;
65315;SDS011;51920;53.952;10.292;2023-06-14T00:38:09;7.35;;;4.40;;
65315;SDS011;51920;53.952;10.292;2023-06-14T00:40:36;9.40;;;4.20;;
65315;SDS011;51920;53.952;10.292;2023-06-14T00:43:03;6.40;;;4.20;;
65315;SDS011;51920;53.952;10.292;2023-06-14T00:45:30;8.80;;;4.15;;
65315;SDS011;51920;53.952;10.292;2023-06-14T00:47:57;9.43;;;4.43;;
65315;SDS011;51920;53.952;10.292;2023-06-14T00:50:25;9.20;;;4.50;;
65315;SDS011;51920;53.952;10.292;2023-06-14T00:52:52;8.13;;;4.23;;
65315;SDS011;51920;53.952;10.292;2023-06-14T00:55:19;7.65;;;4.28;;
65315;SDS011;51920;53.952;10.292;2023-06-14T00:57:46;8.00;;;4.28;;
65315;SDS011;51920;53.952;10.292;2023-06-14T01:00:15;7.30;;;4.15;;
65315;SDS011;51920;53.952;10.292;2023-06-14T01:02:43;9.63;;;4.53;;
65315;SDS011;51920;53.952;10.292;2023-06-14T01:05:09;8.00;;;4.30;;
65315;SDS011;51920;53.952;10.292;2023-06-14T01:11:00;6.97;;;4.30;;
65315;SDS011;51920;53.952;10.292;2023-06-14T01:16:02;7.32;;;3.92;;
65315;SDS011;51920;53.952;10.292;2023-06-14T01:18:31;7.87;;;4.37;;
65315;SDS011;51920;53.952;10.292;2023-06-14T01:21:00;7.93;;;4.60;;
65315;SDS011;51920;53.952;10.292;2023-06-14T01:23:32;8.60;;;4.90;;
65315;SDS011;51920;53.952;10.292;2023-06-14T01:26:01;8.00;;;4.70;;
65315;SDS011;51920;53.952;10.292;2023-06-14T01:28:30;9.52;;;4.88;;
65315;SDS011;51920;53.952;10.292;2023-06-14T01:31:00;8.83;;;4.80;;
65315;SDS011;51920;53.952;10.292;2023-06-14T01:33:32;6.43;;;4.60;;
65315;SDS011;51920;53.952;10.292;2023-06-14T01:36:00;9.15;;;4.78;;
65315;SDS011;51920;53.952;10.292;2023-06-14T01:38:29;12.05;;;5.05;;
65315;SDS011;51920;53.952;10.292;2023-06-14T01:40:57;12.38;;;5.60;;
65315;SDS011;51920;53.952;10.292;2023-06-14T01:43:26;10.07;;;5.30;;
65315;SDS011;51920;53.952;10.292;2023-06-14T01:45:55;11.55;;;5.68;;
65315;SDS011;51920;53.952;10.292;2023-06-14T01:48:23;8.75;;;5.40;;
65315;SDS011;51920;53.952;10.292;2023-06-14T01:50:50;8.18;;;5.30;;
65315;SDS011;51920;53.952;10.292;2023-06-14T01:53:19;10.38;;;5.70;;
65315;SDS011;51920;53.952;10.292;2023-06-14T01:55:46;12.60;;;5.57;;
65315;SDS011;51920;53.952;10.292;2023-06-14T01:58:15;10.80;;;5.43;;
65315;SDS011;51920;53.952;10.292;2023-06-14T02:00:45;9.13;;;5.60;;
65315;SDS011;51920;53.952;10.292;2023-06-14T02:03:13;9.48;;;5.20;;
65315;SDS011;51920;53.952;10.292;2023-06-14T02:05:41;9.18;;;4.93;;
65315;SDS011;51920;53.952;10.292;2023-06-14T02:08:08;11.87;;;5.13;;
65315;SDS011;51920;53.952;10.292;2023-06-14T02:10:36;11.73;;;5.53;;
65315;SDS011;51920;53.952;10.292;2023-06-14T02:13:03;8.57;;;5.30;;
65315;SDS011;51920;53.952;10.292;2023-06-14T02:15:30;10.23;;;5.20;;
65315;SDS011;51920;53.952;10.292;2023-06-14T02:18:04;10.55;;;5.10;;
65315;SDS011;51920;53.952;10.292;2023-06-14T02:20:32;10.80;;;5.23;;
65315;SDS011;51920;53.952;10.292;2023-06-14T02:22:59;10.40;;;5.25;;
65315;SDS011;51920;53.952;10.292;2023-06-14T02:25:30;10.15;;;5.03;;
65315;SDS011;51920;53.952;10.292;2023-06-14T02:27:56;10.50;;;5.30;;
65315;SDS011;51920;53.952;10.292;2023-06-14T02:30:23;9.23;;;5.00;;
65315;SDS011;51920;53.952;10.292;2023-06-14T02:32:50;8.30;;;5.20;;
65315;SDS011;51920;53.952;10.292;2023-06-14T02:35:17;9.98;;;5.13;;
65315;SDS011;51920;53.952;10.292;2023-06-14T02:37:44;13.35;;;4.93;;
65315;SDS011;51920;53.952;10.292;2023-06-14T02:40:11;9.25;;;5.32;;
65315;SDS011;51920;53.952;10.292;2023-06-14T02:42:38;10.18;;;5.30;;
65315;SDS011;51920;53.952;10.292;2023-06-14T02:45:06;9.43;;;5.37;;
65315;SDS011;51920;53.952;10.292;2023-06-14T02:47:33;10.23;;;5.20;;
65315;SDS011;51920;53.952;10.292;2023-06-14T02:50:00;8.68;;;5.32;;
65315;SDS011;51920;53.952;10.292;2023-06-14T02:52:27;9.70;;;4.90;;
65315;SDS011;51920;53.952;10.292;2023-06-14T02:54:55;13.07;;;5.20;;
65315;SDS011;51920;53.952;10.292;2023-06-14T02:57:22;8.30;;;4.63;;
65315;SDS011;51920;53.952;10.292;2023-06-14T02:59:50;10.68;;;5.50;;
65315;SDS011;51920;53.952;10.292;2023-06-14T03:02:16;8.68;;;4.90;;
65315;SDS011;51920;53.952;10.292;2023-06-14T03:04:44;8.70;;;4.80;;
65315;SDS011;51920;53.952;10.292;2023-06-14T03:07:16;8.35;;;5.30;;
65315;SDS011;51920;53.952;10.292;2023-06-14T03:09:48;8.37;;;4.63;;
65315;SDS011;51920;53.952;10.292;2023-06-14T03:12:15;9.75;;;5.25;;
65315;SDS011;51920;53.952;10.292;2023-06-14T03:14:43;11.07;;;4.70;;
65315;SDS011;51920;53.952;10.292;2023-06-14T03:17:15;8.07;;;5.07;;
65315;SDS011;51920;53.952;10.292;2023-06-14T03:19:44;9.70;;;5.20;;
65315;SDS011;51920;53.952;10.292;2023-06-14T03:22:12;9.67;;;5.33;;
65315;SDS011;51920;53.952;10.292;2023-06-14T03:24:40;8.30;;;5.35;;
65315;SDS011;51920;53.952;10.292;2023-06-14T03:27:10;8.82;;;5.38;;
65315;SDS011;51920;53.952;10.292;2023-06-14T03:29:42;9.50;;;5.32;;
65315;SDS011;51920;53.952;10.292;2023-06-14T03:32:09;11.43;;;5.68;;
65315;SDS011;51920;53.952;10.292;2023-06-14T03:34:38;12.33;;;5.60;;
65315;SDS011;51920;53.952;10.292;2023-06-14T03:37:07;9.23;;;5.60;;
65315;SDS011;51920;53.952;10.292;2023-06-14T03:39:34;10.10;;;5.18;;
65315;SDS011;51920;53.952;10.292;2023-06-14T03:42:01;8.68;;;4.97;;
65315;SDS011;51920;53.952;10.292;2023-06-14T03:44:28;8.27;;;5.18;;
65315;SDS011;51920;53.952;10.292;2023-06-14T03:46:54;7.27;;;4.73;;
65315;SDS011;51920;53.952;10.292;2023-06-14T03:49:22;10.48;;;4.80;;
65315;SDS011;51920;53.952;10.292;2023-06-14T03:51:49;9.07;;;4.95;;
65315;SDS011;51920;53.952;10.292;2023-06-14T03:54:20;7.05;;;4.70;;
65315;SDS011;51920;53.952;10.292;2023-06-14T03:56:52;8.40;;;4.90;;
65315;SDS011;51920;53.952;10.292;2023-06-14T03:59:18;9.13;;;4.33;;
65315;SDS011;51920;53.952;10.292;2023-06-14T04:01:47;9.23;;;4.88;;
65315;SDS011;51920;53.952;10.292;2023-06-14T04:04:15;8.30;;;4.43;;
65315;SDS011;51920;53.952;10.292;2023-06-14T04:06:45;8.70;;;4.30;;
65315;SDS011;51920;53.952;10.292;2023-06-14T04:09:15;10.27;;;4.57;;
65315;SDS011;51920;53.952;10.292;2023-06-14T04:11:41;8.87;;;4.30;;
65315;SDS011;51920;53.952;10.292;2023-06-14T04:14:08;10.63;;;4.53;;
65315;SDS011;51920;53.952;10.292;2023-06-14T04:16:35;9.55;;;4.15;;
65315;SDS011;51920;53.952;10.292;2023-06-14T04:19:01;7.38;;;4.07;;
65315;SDS011;51920;53.952;10.292;2023-06-14T04:21:28;7.43;;;3.97;;
65315;SDS011;51920;53.952;10.292;2023-06-14T04:23:58;7.33;;;3.90;;
65315;SDS011;51920;53.952;10.292;2023-06-14T04:26:29;8.00;;;4.05;;
65315;SDS011;51920;53.952;10.292;2023-06-14T04:28:56;7.05;;;4.20;;
65315;SDS011;51920;53.952;10.292;2023-06-14T04:31:30;10.82;;;4.30;;
65315;SDS011;51920;53.952;10.292;2023-06-14T04:34:00;8.18;;;3.97;;
65315;SDS011;51920;53.952;10.292;2023-06-14T04:36:27;7.90;;;3.70;;
65315;SDS011;51920;53.952;10.292;2023-06-14T04:38:54;8.18;;;4.40;;
65315;SDS011;51920;53.952;10.292;2023-06-14T04:41:24;9.98;;;4.57;;
65315;SDS011;51920;53.952;10.292;2023-06-14T04:43:57;8.63;;;4.28;;
65315;SDS011;51920;53.952;10.292;2023-06-14T04:46:31;7.40;;;4.50;;
65315;SDS011;51920;53.952;10.292;2023-06-14T04:48:58;7.97;;;4.13;;
65315;SDS011;51920;53.952;10.292;2023-06-14T04:51:28;6.53;;;3.80;;
65315;SDS011;51920;53.952;10.292;2023-06-14T04:54:00;10.25;;;4.18;;
65315;SDS011;51920;53.952;10.292;2023-06-14T04:56:28;7.50;;;3.80;;
65315;SDS011;51920;53.952;10.292;2023-06-14T04:58:56;10.85;;;4.18;;
65315;SDS011;51920;53.952;10.292;2023-06-14T05:01:23;10.03;;;4.37;;
65315;SDS011;51920;53.952;10.292;2023-06-14T05:03:49;6.45;;;3.75;;
65315;SDS011;51920;53.952;10.292;2023-06-14T05:06:17;10.35;;;4.50;;
65315;SDS011;51920;53.952;10.292;2023-06-14T05:08:44;9.25;;;4.28;;
65315;SDS011;51920;53.952;10.292;2023-06-14T05:11:21;7.80;;;4.00;;
65315;SDS011;51920;53.952;10.292;2023-06-14T05:13:50;8.10;;;3.70;;
65315;SDS011;51920;53.952;10.292;2023-06-14T05:16:17;8.50;;;3.70;;
65315;SDS011;51920;53.952;10.292;2023-06-14T05:18:45;8.45;;;3.78;;
65315;SDS011;51920;53.952;10.292;2023-06-14T05:21:13;7.85;;;3.58;;
65315;SDS011;51920;53.952;10.292;2023-06-14T05:23:44;5.80;;;3.60;;
65315;SDS011;51920;53.952;10.292;2023-06-14T05:26:11;6.67;;;3.70;;
65315;SDS011;51920;53.952;10.292;2023-06-14T05:28:38;6.55;;;3.60;;
65315;SDS011;51920;53.952;10.292;2023-06-14T05:31:04;5.57;;;3.45;;
65315;SDS011;51920;53.952;10.292;2023-06-14T05:33:31;5.90;;;3.40;;
65315;SDS011;51920;53.952;10.292;2023-06-14T05:35:58;7.88;;;3.70;;
65315;SDS011;51920;53.952;10.292;2023-06-14T05:38:24;6.67;;;3.57;;
65315;SDS011;51920;53.952;10.292;2023-06-14T05:40:51;7.78;;;3.50;;
65315;SDS011;51920;53.952;10.292;2023-06-14T05:43:19;8.48;;;3.88;;
65315;SDS011;51920;53.952;10.292;2023-06-14T05:45:46;7.63;;;3.28;;
65315;SDS011;51920;53.952;10.292;2023-06-14T05:48:13;8.63;;;3.80;;
65315;SDS011;51920;53.952;10.292;2023-06-14T05:50:45;6.63;;;3.10;;
65315;SDS011;51920;53.952;10.292;2023-06-14T05:53:15;8.63;;;3.45;;
65315;SDS011;51920;53.952;10.292;2023-06-14T05:55:42;7.78;;;3.50;;
65315;SDS011;51920;53.952;10.292;2023-06-14T05:58:13;5.38;;;3.38;;
65315;SDS011;51920;53.952;10.292;2023-06-14T06:00:40;5.75;;;3.30;;
65315;SDS011;51920;53.952;10.292;2023-06-14T06:03:06;7.37;;;3.43;;
65315;SDS011;51920;53.952;10.292;2023-06-14T06:05:37;7.05;;;3.60;;
65315;SDS011;51920;53.952;10.292;2023-06-14T06:08:04;7.57;;;3.45;;
65315;SDS011;51920;53.952;10.292;2023-06-14T06:10:30;7.20;;;3.15;;
65315;SDS011;51920;53.952;10.292;2023-06-14T06:12:57;7.68;;;3.33;;
65315;SDS011;51920;53.952;10.292;2023-06-14T06:15:24;6.03;;;3.67;;
65315;SDS011;51920;53.952;10.292;2023-06-14T06:17:51;8.00;;;3.40;;
65315;SDS011;51920;53.952;10.292;2023-06-14T06:20:20;6.75;;;3.33;;
65315;SDS011;51920;53.952;10.292;2023-06-14T06:22:47;5.85;;;3.15;;
65315;SDS011;51920;53.952;10.292;2023-06-14T06:25:14;5.97;;;3.20;;
65315;SDS011;51920;53.952;10.292;2023-06-14T06:27:41;4.70;;;2.97;;
65315;SDS011;51920;53.952;10.292;2023-06-14T06:30:08;7.90;;;3.20;;
65315;SDS011;51920;53.952;10.292;2023-06-14T06:32:35;4.60;;;3.08;;
65315;SDS011;51920;53.952;10.292;2023-06-14T06:35:01;6.25;;;3.40;;
65315;SDS011;51920;53.952;10.292;2023-06-14T06:37:28;5.43;;;3.20;;
65315;SDS011;51920;53.952;10.292;2023-06-14T06:39:55;7.70;;;3.17;;
65315;SDS011;51920;53.952;10.292;2023-06-14T06:42:21;5.43;;;3.05;;
65315;SDS011;51920;53.952;10.292;2023-06-14T06:44:49;5.85;;;3.10;;
65315;SDS011;51920;53.952;10.292;2023-06-14T06:47:16;12.70;;;3.10;;
65315;SDS011;51920;53.952;10.292;2023-06-14T06:49:43;4.65;;;3.00;;
65315;SDS011;51920;53.952;10.292;2023-06-14T06:52:10;7.77;;;3.10;;
65315;SDS011;51920;53.952;10.292;2023-06-14T06:54:36;5.95;;;3.20;;
65315;SDS011;51920;53.952;10.292;2023-06-14T06:57:03;4.55;;;2.80;;
65315;SDS011;51920;53.952;10.292;2023-06-14T06:59:30;5.53;;;3.00;;
65315;SDS011;51920;53.952;10.292;2023-06-14T07:01:57;6.10;;;2.90;;
65315;SDS011;51920;53.952;10.292;2023-06-14T07:04:23;4.57;;;2.83;;
65315;SDS011;51920;53.952;10.292;2023-06-14T07:06:50;4.95;;;3.10;;
65315;SDS011;51920;53.952;10.292;2023-06-14T07:09:17;5.60;;;2.75;;
65315;SDS011;51920;53.952;10.292;2023-06-14T07:11:46;6.05;;;2.88;;
65315;SDS011;51920;53.952;10.292;2023-06-14T07:14:14;4.90;;;3.00;;
65315;SDS011;51920;53.952;10.292;2023-06-14T07:16:40;6.37;;;3.03;;
65315;SDS011;51920;53.952;10.292;2023-06-14T07:19:07;5.47;;;2.63;;
65315;SDS011;51920;53.952;10.292;2023-06-14T07:21:35;5.00;;;3.17;;
65315;SDS011;51920;53.952;10.292;2023-06-14T07:24:05;6.38;;;3.00;;
65315;SDS011;51920;53.952;10.292;2023-06-14T07:26:32;7.15;;;2.65;;
65315;SDS011;51920;53.952;10.292;2023-06-14T07:28:59;10.10;;;2.70;;
65315;SDS011;51920;53.952;10.292;2023-06-14T07:31:26;4.13;;;2.40;;
65315;SDS011;51920;53.952;10.292;2023-06-14T07:33:53;3.90;;;2.60;;
65315;SDS011;51920;53.952;10.292;2023-06-14T07:36:20;6.80;;;2.80;;
65315;SDS011;51920;53.952;10.292;2023-06-14T07:38:47;5.63;;;2.75;;
65315;SDS011;51920;53.952;10.292;2023-06-14T07:41:13;5.93;;;3.07;;
65315;SDS011;51920;53.952;10.292;2023-06-14T07:43:40;5.22;;;2.83;;
65315;SDS011;51920;53.952;10.292;2023-06-14T07:46:06;5.60;;;2.97;;
65315;SDS011;51920;53.952;10.292;2023-06-14T07:48:34;6.18;;;2.90;;
65315;SDS011;51920;53.952;10.292;2023-06-14T07:51:01;4.10;;;2.53;;
65315;SDS011;51920;53.952;10.292;2023-06-14T07:53:28;4.80;;;2.80;;
65315;SDS011;51920;53.952;10.292;2023-06-14T07:55:54;4.53;;;2.70;;
65315;SDS011;51920;53.952;10.292;2023-06-14T07:58:21;3.92;;;2.90;;
65315;SDS011;51920;53.952;10.292;2023-06-14T08:00:48;5.15;;;2.80;;
65315;SDS011;51920;53.952;10.292;2023-06-14T08:03:14;4.28;;;2.83;;
65315;SDS011;51920;53.952;10.292;2023-06-14T08:05:42;5.23;;;2.73;;
65315;SDS011;51920;53.952;10.292;2023-06-14T08:08:08;6.43;;;2.70;;
65315;SDS011;51920;53.952;10.292;2023-06-14T08:10:37;4.30;;;2.40;;
65315;SDS011;51920;53.952;10.292;2023-06-14T08:13:04;5.13;;;2.90;;
65315;SDS011;51920;53.952;10.292;2023-06-14T08:15:31;4.93;;;3.10;;
65315;SDS011;51920;53.952;10.292;2023-06-14T08:17:57;4.40;;;3.00;;
65315;SDS011;51920;53.952;10.292;2023-06-14T08:20:26;6.53;;;2.83;;
65315;SDS011;51920;53.952;10.292;2023-06-14T08:22:53;4.88;;;2.70;;
65315;SDS011;51920;53.952;10.292;2023-06-14T08:25:23;4.75;;;3.15;;
65315;SDS011;51920;53.952;10.292;2023-06-14T08:27:49;5.57;;;2.60;;
65315;SDS011;51920;53.952;10.292;2023-06-14T08:30:16;9.53;;;3.20;;
65315;SDS011;51920;53.952;10.292;2023-06-14T08:32:43;5.70;;;3.00;;
65315;SDS011;51920;53.952;10.292;2023-06-14T08:35:10;5.43;;;3.03;;
65315;SDS011;51920;53.952;10.292;2023-06-14T08:37:39;5.43;;;2.70;;
65315;SDS011;51920;53.952;10.292;2023-06-14T08:40:18;6.07;;;2.80;;
65315;SDS011;51920;53.952;10.292;2023-06-14T08:42:47;4.20;;;3.03;;
65315;SDS011;51920;53.952;10.292;2023-06-14T08:45:16;6.68;;;2.83;;
65315;SDS011;51920;53.952;10.292;2023-06-14T08:47:43;5.00;;;2.80;;
65315;SDS011;51920;53.952;10.292;2023-06-14T08:50:12;5.18;;;3.08;;
65315;SDS011;51920;53.952;10.292;2023-06-14T08:52:43;4.43;;;2.90;;
65315;SDS011;51920;53.952;10.292;2023-06-14T08:55:15;5.93;;;3.23;;
65315;SDS011;51920;53.952;10.292;2023-06-14T08:57:44;3.90;;;2.70;;
65315;SDS011;51920;53.952;10.292;2023-06-14T09:00:12;6.05;;;3.05;;
65315;SDS011;51920;53.952;10.292;2023-06-14T09:02:39;6.72;;;2.92;;
65315;SDS011;51920;53.952;10.292;2023-06-14T09:05:10;5.30;;;3.13;;
65315;SDS011;51920;53.952;10.292;2023-06-14T09:07:40;6.00;;;2.70;;
65315;SDS011;51920;53.952;10.292;2023-06-14T09:10:12;4.93;;;2.80;;
65315;SDS011;51920;53.952;10.292;2023-06-14T09:12:40;5.53;;;2.72;;
65315;SDS011;51920;53.952;10.292;2023-06-14T09:15:07;5.72;;;2.72;;
65315;SDS011;51920;53.952;10.292;2023-06-14T09:17:35;4.47;;;2.90;;
65315;SDS011;51920;53.952;10.292;2023-06-14T09:20:03;4.03;;;2.80;;
65315;SDS011;51920;53.952;10.292;2023-06-14T09:22:36;3.90;;;2.83;;
65315;SDS011;51920;53.952;10.292;2023-06-14T09:25:04;7.32;;;2.97;;
65315;SDS011;51920;53.952;10.292;2023-06-14T09:27:32;4.45;;;2.53;;
65315;SDS011;51920;53.952;10.292;2023-06-14T09:29:59;5.95;;;3.00;;
65315;SDS011;51920;53.952;10.292;2023-06-14T09:32:27;4.87;;;3.20;;
65315;SDS011;51920;53.952;10.292;2023-06-14T09:34:54;7.28;;;2.90;;
65315;SDS011;51920;53.952;10.292;2023-06-14T09:37:30;5.97;;;3.10;;
65315;SDS011;51920;53.952;10.292;2023-06-14T09:39:58;7.75;;;3.20;;
65315;SDS011;51920;53.952;10.292;2023-06-14T09:42:25;4.63;;;2.72;;
65315;SDS011;51920;53.952;10.292;2023-06-14T09:44:55;4.50;;;3.03;;
65315;SDS011;51920;53.952;10.292;2023-06-14T09:47:23;6.63;;;3.00;;
65315;SDS011;51920;53.952;10.292;2023-06-14T09:49:51;5.53;;;3.05;;
65315;SDS011;51920;53.952;10.292;2023-06-14T09:52:21;7.10;;;3.13;;
65315;SDS011;51920;53.952;10.292;2023-06-14T09:54:49;6.20;;;2.85;;
65315;SDS011;51920;53.952;10.292;2023-06-14T09:57:23;4.40;;;3.00;;
65315;SDS011;51920;53.952;10.292;2023-06-14T09:59:52;5.03;;;3.00;;
65315;SDS011;51920;53.952;10.292;2023-06-14T10:02:29;5.32;;;3.00;;
65315;SDS011;51920;53.952;10.292;2023-06-14T10:05:07;4.95;;;3.00;;
65315;SDS011;51920;53.952;10.292;2023-06-14T10:07:42;6.60;;;3.40;;
65315;SDS011;51920;53.952;10.292;2023-06-14T10:10:15;8.83;;;2.90;;
65315;SDS011;51920;53.952;10.292;2023-06-14T10:12:41;4.95;;;2.88;;
65315;SDS011;51920;53.952;10.292;2023-06-14T10:15:09;4.47;;;3.20;;
65315;SDS011;51920;53.952;10.292;2023-06-14T10:23:08;4.23;;;3.07;;
65315;SDS011;51920;53.952;10.292;2023-06-14T10:25:39;4.82;;;3.08;;
65315;SDS011;51920;53.952;10.292;2023-06-14T10:30:39;6.57;;;2.97;;
65315;SDS011;51920;53.952;10.292;2023-06-14T10:33:06;5.80;;;2.90;;
65315;SDS011;51920;53.952;10.292;2023-06-14T10:35:34;5.63;;;3.00;;
65315;SDS011;51920;53.952;10.292;2023-06-14T10:38:08;8.40;;;3.00;;
65315;SDS011;51920;53.952;10.292;2023-06-14T10:40:35;5.97;;;2.97;;
65315;SDS011;51920;53.952;10.292;2023-06-14T10:43:20;4.75;;;3.20;;
65315;SDS011;51920;53.952;10.292;2023-06-14T10:48:40;5.33;;;2.63;;
65315;SDS011;51920;53.952;10.292;2023-06-14T10:51:17;5.50;;;3.03;;
65315;SDS011;51920;53.952;10.292;2023-06-14T10:53:48;4.75;;;2.75;;
65315;SDS011;51920;53.952;10.292;2023-06-14T10:56:28;6.60;;;2.90;;
65315;SDS011;51920;53.952;10.292;2023-06-14T10:58:57;5.57;;;2.80;;
65315;SDS011;51920;53.952;10.292;2023-06-14T11:01:38;7.33;;;3.00;;
65315;SDS011;51920;53.952;10.292;2023-06-14T11:04:09;5.85;;;2.70;;
65315;SDS011;51920;53.952;10.292;2023-06-14T11:06:44;4.75;;;2.80;;
65315;SDS011;51920;53.952;10.292;2023-06-14T11:09:34;3.97;;;2.65;;
65315;SDS011;51920;53.952;10.292;2023-06-14T11:12:13;4.03;;;2.72;;
65315;SDS011;51920;53.952;10.292;2023-06-14T11:14:41;5.23;;;2.77;;
65315;SDS011;51920;53.952;10.292;2023-06-14T11:17:08;6.45;;;2.70;;
65315;SDS011;51920;53.952;10.292;2023-06-14T11:19:35;6.53;;;2.35;;
65315;SDS011;51920;53.952;10.292;2023-06-14T11:22:02;8.07;;;2.80;;
65315;SDS011;51920;53.952;10.292;2023-06-14T11:24:29;5.03;;;2.55;;
65315;SDS011;51920;53.952;10.292;2023-06-14T11:26:56;7.23;;;2.67;;
65315;SDS011;51920;53.952;10.292;2023-06-14T11:29:23;5.57;;;2.97;;
65315;SDS011;51920;53.952;10.292;2023-06-14T11:31:50;5.28;;;2.80;;
65315;SDS011;51920;53.952;10.292;2023-06-14T11:34:17;5.10;;;2.83;;
65315;SDS011;51920;53.952;10.292;2023-06-14T11:36:44;5.93;;;2.58;;
65315;SDS011;51920;53.952;10.292;2023-06-14T11:39:12;3.73;;;2.40;;
65315;SDS011;51920;53.952;10.292;2023-06-14T11:41:42;4.18;;;2.60;;
65315;SDS011;51920;53.952;10.292;2023-06-14T11:44:10;4.90;;;2.65;;
65315;SDS011;51920;53.952;10.292;2023-06-14T11:46:38;4.00;;;2.90;;
65315;SDS011;51920;53.952;10.292;2023-06-14T11:49:04;5.90;;;2.70;;
65315;SDS011;51920;53.952;10.292;2023-06-14T11:51:33;5.10;;;2.60;;
65315;SDS011;51920;53.952;10.292;2023-06-14T11:54:01;5.82;;;2.72;;
65315;SDS011;51920;53.952;10.292;2023-06-14T11:56:29;5.05;;;2.90;;
65315;SDS011;51920;53.952;10.292;2023-06-14T11:58:59;5.45;;;2.60;;
65315;SDS011;51920;53.952;10.292;2023-06-14T12:01:32;7.30;;;2.78;;
65315;SDS011;51920;53.952;10.292;2023-06-14T12:04:01;5.10;;;2.67;;
65315;SDS011;51920;53.952;10.292;2023-06-14T12:06:30;5.43;;;2.50;;
65315;SDS011;51920;53.952;10.292;2023-06-14T12:09:03;5.65;;;2.65;;
65315;SDS011;51920;53.952;10.292;2023-06-14T12:11:33;4.15;;;2.70;;
65315;SDS011;51920;53.952;10.292;2023-06-14T12:14:02;5.35;;;2.80;;
65315;SDS011;51920;53.952;10.292;2023-06-14T12:16:33;4.03;;;2.83;;
65315;SDS011;51920;53.952;10.292;2023-06-14T12:19:09;5.82;;;2.60;;
65315;SDS011;51920;53.952;10.292;2023-06-14T12:21:43;3.80;;;2.67;;
65315;SDS011;51920;53.952;10.292;2023-06-14T12:24:14;4.57;;;3.03;;
65315;SDS011;51920;53.952;10.292;2023-06-14T12:26:41;4.88;;;2.88;;
65315;SDS011;51920;53.952;10.292;2023-06-14T12:29:08;5.23;;;2.70;;
65315;SDS011;51920;53.952;10.292;2023-06-14T12:31:37;4.25;;;2.83;;
65315;SDS011;51920;53.952;10.292;2023-06-14T12:34:04;6.20;;;2.65;;
65315;SDS011;51920;53.952;10.292;2023-06-14T12:36:31;4.05;;;2.45;;
65315;SDS011;51920;53.952;10.292;2023-06-14T12:38:58;10.15;;;2.70;;
65315;SDS011;51920;53.952;10.292;2023-06-14T12:41:27;5.67;;;2.77;;
65315;SDS011;51920;53.952;10.292;2023-06-14T12:43:54;5.20;;;2.65;;
65315;SDS011;51920;53.952;10.292;2023-06-14T12:46:21;3.80;;;2.65;;
65315;SDS011;51920;53.952;10.292;2023-06-14T12:48:48;3.10;;;2.55;;
65315;SDS011;51920;53.952;10.292;2023-06-14T12:51:15;3.63;;;2.55;;
65315;SDS011;51920;53.952;10.292;2023-06-14T12:53:43;4.97;;;2.37;;
65315;SDS011;51920;53.952;10.292;2023-06-14T12:56:10;4.55;;;2.50;;
65315;SDS011;51920;53.952;10.292;2023-06-14T12:58:37;4.65;;;2.50;;
65315;SDS011;51920;53.952;10.292;2023-06-14T13:01:03;7.75;;;2.53;;
65315;SDS011;51920;53.952;10.292;2023-06-14T13:03:30;4.85;;;2.60;;
65315;SDS011;51920;53.952;10.292;2023-06-14T13:05:57;4.07;;;2.60;;
65315;SDS011;51920;53.952;10.292;2023-06-14T13:08:23;5.32;;;2.65;;
65315;SDS011;51920;53.952;10.292;2023-06-14T13:10:51;3.83;;;2.67;;
65315;SDS011;51920;53.952;10.292;2023-06-14T13:13:17;4.38;;;2.47;;
65315;SDS011;51920;53.952;10.292;2023-06-14T13:15:44;4.85;;;2.55;;
65315;SDS011;51920;53.952;10.292;2023-06-14T13:18:12;4.30;;;2.50;;
65315;SDS011;51920;53.952;10.292;2023-06-14T13:20:39;3.53;;;2.60;;
65315;SDS011;51920;53.952;10.292;2023-06-14T13:23:06;5.07;;;2.60;;
65315;SDS011;51920;53.952;10.292;2023-06-14T13:25:34;3.95;;;2.58;;
65315;SDS011;51920;53.952;10.292;2023-06-14T13:28:01;4.38;;;2.60;;
65315;SDS011;51920;53.952;10.292;2023-06-14T13:30:27;4.30;;;2.50;;
65315;SDS011;51920;53.952;10.292;2023-06-14T13:32:54;5.13;;;2.50;;
65315;SDS011;51920;53.952;10.292;2023-06-14T13:35:22;3.97;;;2.67;;
65315;SDS011;51920;53.952;10.292;2023-06-14T13:37:50;5.05;;;2.63;;
65315;SDS011;51920;53.952;10.292;2023-06-14T13:40:17;3.90;;;2.50;;
65315;SDS011;51920;53.952;10.292;2023-06-14T13:42:45;4.77;;;2.70;;
65315;SDS011;51920;53.952;10.292;2023-06-14T13:45:13;3.95;;;2.45;;
65315;SDS011;51920;53.952;10.292;2023-06-14T13:47:40;3.90;;;2.50;;
65315;SDS011;51920;53.952;10.292;2023-06-14T13:50:07;5.28;;;2.58;;
65315;SDS011;51920;53.952;10.292;2023-06-14T13:52:34;7.15;;;2.70;;
65315;SDS011;51920;53.952;10.292;2023-06-14T13:55:02;4.97;;;2.43;;
65315;SDS011;51920;53.952;10.292;2023-06-14T13:57:28;4.55;;;2.60;;
65315;SDS011;51920;53.952;10.292;2023-06-14T13:59:55;5.68;;;3.22;;
65315;SDS011;51920;53.952;10.292;2023-06-14T14:02:37;3.80;;;2.78;;
65315;SDS011;51920;53.952;10.292;2023-06-14T14:05:04;5.85;;;2.95;;
65315;SDS011;51920;53.952;10.292;2023-06-14T14:07:31;6.60;;;2.63;;
65315;SDS011;51920;53.952;10.292;2023-06-14T14:09:58;5.25;;;2.72;;
65315;SDS011;51920;53.952;10.292;2023-06-14T14:12:24;4.75;;;2.78;;
65315;SDS011;51920;53.952;10.292;2023-06-14T14:14:51;6.07;;;2.85;;
65315;SDS011;51920;53.952;10.292;2023-06-14T14:17:18;4.93;;;2.53;;
65315;SDS011;51920;53.952;10.292;2023-06-14T14:19:45;5.13;;;2.60;;
65315;SDS011;51920;53.952;10.292;2023-06-14T14:22:12;2.95;;;2.30;;
65315;SDS011;51920;53.952;10.292;2023-06-14T14:24:39;4.00;;;2.47;;
65315;SDS011;51920;53.952;10.292;2023-06-14T14:27:05;4.25;;;2.72;;
65315;SDS011;51920;53.952;10.292;2023-06-14T14:29:33;4.38;;;2.33;;
65315;SDS011;51920;53.952;10.292;2023-06-14T14:31:59;3.30;;;2.43;;
65315;SDS011;51920;53.952;10.292;2023-06-14T14:34:26;4.78;;;2.50;;
65315;SDS011;51920;53.952;10.292;2023-06-14T14:36:53;3.88;;;2.42;;
65315;SDS011;51920;53.952;10.292;2023-06-14T14:39:20;3.75;;;2.45;;
65315;SDS011;51920;53.952;10.292;2023-06-14T14:41:47;4.63;;;2.30;;
65315;SDS011;51920;53.952;10.292;2023-06-14T14:44:14;6.47;;;2.30;;
65315;SDS011;51920;53.952;10.292;2023-06-14T14:46:41;2.92;;;2.50;;
65315;SDS011;51920;53.952;10.292;2023-06-14T14:49:07;4.55;;;2.47;;
65315;SDS011;51920;53.952;10.292;2023-06-14T14:51:34;4.70;;;2.50;;
65315;SDS011;51920;53.952;10.292;2023-06-14T14:54:01;7.22;;;2.60;;
65315;SDS011;51920;53.952;10.292;2023-06-14T14:56:28;5.23;;;2.50;;